Time;durP1;ratioP1;P1;durP2;ratioP2;P2;SDS_P1;SDS_P2;PMS_P1;PMS_P2;Temp;Humidity;BMP_temperature;BMP_pressure;BME280_temperature;BME280_humidity;BME280_pressure;Samples;Min_cycle;Max_cycle;Signal;HPM_P1;HPM_P2
2023/06/03 00:00:43;;;;;;;4.75;2.03;;;;;;;9.26;60.69;101809.50;4883265;29;20684;-69
2023/06/03 00:03:13;;;;;;;3.95;2.10;;;;;;;9.15;61.42;101802.59;4883875;29;20740;-68
2023/06/03 00:05:45;;;;;;;4.35;2.42;;;;;;;9.06;61.98;101799.06;4888058;29;20242;-68
2023/06/03 00:08:14;;;;;;;6.25;2.70;;;;;;;9.16;61.86;101805.13;4885838;29;20293;-68
2023/06/03 00:10:44;;;;;;;5.00;2.60;;;;;;;9.10;61.89;101805.81;4887327;29;20693;-69
2023/06/03 00:13:13;;;;;;;4.20;2.00;;;;;;;8.96;62.39;101806.50;4885221;29;20205;-70
2023/06/03 00:15:42;;;;;;;4.50;2.80;;;;;;;8.85;62.65;101806.84;4885809;29;20750;-69
2023/06/03 00:18:11;;;;;;;5.35;3.15;;;;;;;9.24;64.08;101806.16;4880533;29;20210;-68
2023/06/03 00:20:40;;;;;;;1.45;1.35;;;;;;;9.04;62.09;101806.50;4884773;29;20262;-69
2023/06/03 00:23:09;;;;;;;2.85;2.10;;;;;;;9.30;63.04;101805.44;4885484;29;20547;-68
2023/06/03 00:25:38;;;;;;;1.65;1.50;;;;;;;9.10;61.91;101811.22;4882581;29;20222;-69
2023/06/03 00:28:09;;;;;;;2.60;1.75;;;;;;;8.81;62.87;101802.78;4883144;29;20585;-72
2023/06/03 00:30:39;;;;;;;4.65;1.98;;;;;;;8.76;63.02;101807.88;4880941;29;20280;-67
2023/06/03 00:33:08;;;;;;;2.85;2.03;;;;;;;8.90;63.25;101804.50;4883562;29;20200;-70
2023/06/03 00:35:38;;;;;;;4.18;2.30;;;;;;;8.69;63.44;101806.84;4879780;29;20255;-68
2023/06/03 00:38:07;;;;;;;4.28;1.90;;;;;;;8.54;64.48;101805.81;4881003;29;20582;-70
2023/06/03 00:40:36;;;;;;;4.20;3.58;;;;;;;8.60;63.69;101803.31;4880557;29;20251;-69
2023/06/03 00:43:05;;;;;;;2.08;1.88;;;;;;;8.68;63.32;101813.25;4881124;29;20203;-69
2023/06/03 00:45:36;;;;;;;2.20;2.00;;;;;;;8.44;63.79;101810.50;4883746;29;20230;-67
2023/06/03 00:48:05;;;;;;;2.58;1.42;;;;;;;8.88;62.81;101811.91;4892066;29;20228;-69
2023/06/03 00:50:35;;;;;;;3.10;1.80;;;;;;;8.66;63.38;101809.88;4883830;29;20201;-70
2023/06/03 00:53:05;;;;;;;4.18;1.92;;;;;;;8.55;63.74;101810.19;4883693;29;20213;-69
2023/06/03 00:55:35;;;;;;;5.10;2.47;;;;;;;8.68;64.22;101811.38;4880489;29;20228;-70
2023/06/03 00:58:05;;;;;;;5.90;1.75;;;;;;;8.54;63.77;101809.34;4879275;29;20672;-70
2023/06/03 01:00:36;;;;;;;2.33;1.90;;;;;;;8.49;63.98;101816.25;4889827;29;20266;-70
2023/06/03 01:03:13;;;;;;;7.03;2.95;;;;;;;8.37;64.13;101818.44;4885940;29;20218;-70
2023/06/03 01:05:45;;;;;;;4.72;2.67;;;;;;;8.26;64.71;101816.88;4883118;29;20243;-69
2023/06/03 01:08:24;;;;;;;2.97;2.63;;;;;;;8.19;64.94;101815.81;4886449;29;20220;-69
2023/06/03 01:11:06;;;;;;;8.77;2.90;;;;;;;8.31;66.35;101815.56;4880979;29;20211;-69
2023/06/03 01:13:45;;;;;;;4.95;3.58;;;;;;;8.21;65.02;101816.50;4887710;29;20737;-70
2023/06/03 01:16:18;;;;;;;4.50;3.35;;;;;;;8.21;65.04;101823.75;4879266;29;20223;-68
2023/06/03 01:18:49;;;;;;;5.72;3.80;;;;;;;8.13;66.15;101821.84;4896367;29;20803;-68
2023/06/03 01:21:18;;;;;;;6.25;5.20;;;;;;;8.10;65.69;101816.81;4888646;29;20195;-68
2023/06/03 01:23:49;;;;;;;6.70;6.00;;;;;;;8.06;66.36;101814.59;4884891;29;20574;-68
2023/06/03 01:26:19;;;;;;;6.13;5.43;;;;;;;8.20;65.95;101817.50;4882907;29;20233;-70
2023/06/03 01:28:49;;;;;;;5.60;5.10;;;;;;;7.99;65.93;101814.41;4884176;29;20768;-67
2023/06/03 01:31:18;;;;;;;6.53;4.45;;;;;;;7.98;65.87;101811.88;4880833;29;20198;-68
2023/06/03 01:33:48;;;;;;;7.43;6.50;;;;;;;8.13;67.54;101816.47;4881219;29;20195;-69
2023/06/03 01:36:17;;;;;;;9.20;5.45;;;;;;;8.31;66.18;101818.25;4883382;29;20212;-69
2023/06/03 01:38:48;;;;;;;8.63;5.15;;;;;;;8.31;64.60;101829.03;4884242;29;20199;-68
2023/06/03 01:41:18;;;;;;;6.50;5.53;;;;;;;8.08;65.28;101821.53;4887108;29;20199;-69
2023/06/03 01:43:47;;;;;;;6.07;3.63;;;;;;;8.21;65.34;101834.53;4882410;29;20293;-68
2023/06/03 01:46:16;;;;;;;5.40;3.90;;;;;;;7.91;65.96;101824.31;4876902;29;20678;-69
2023/06/03 01:48:45;;;;;;;4.40;3.22;;;;;;;7.85;66.59;101823.94;4879290;29;20205;-67
2023/06/03 01:51:14;;;;;;;4.95;3.60;;;;;;;7.78;66.29;101820.22;4882088;29;20301;-68
2023/06/03 01:53:43;;;;;;;3.97;2.50;;;;;;;7.70;66.74;101822.03;4879386;29;20191;-68
2023/06/03 01:56:13;;;;;;;4.28;3.17;;;;;;;7.78;66.55;101816.69;4879034;29;20213;-69
2023/06/03 01:58:43;;;;;;;4.55;2.70;;;;;;;7.70;66.58;101824.72;4891748;29;20249;-67
2023/06/03 02:01:13;;;;;;;3.50;1.95;;;;;;;7.64;66.71;101822.69;4883445;29;20209;-68
2023/06/03 02:03:43;;;;;;;4.07;2.03;;;;;;;7.56;67.69;101817.22;4879132;29;20222;-68
2023/06/03 02:06:15;;;;;;;2.97;1.90;;;;;;;7.59;66.60;101817.78;4884235;29;20218;-68
2023/06/03 02:08:45;;;;;;;4.57;1.80;;;;;;;7.64;66.99;101820.00;4881752;29;20203;-69
2023/06/03 02:11:15;;;;;;;5.45;1.52;;;;;;;7.96;66.05;101820.13;4877843;29;20199;-70
2023/06/03 02:13:44;;;;;;;2.08;1.70;;;;;;;7.62;66.80;101820.16;4880530;29;20202;-67
2023/06/03 02:16:13;;;;;;;6.60;1.75;;;;;;;7.72;66.49;101820.03;4884316;29;20770;-68
2023/06/03 02:18:43;;;;;;;6.47;1.50;;;;;;;7.61;66.49;101820.28;4881324;29;20204;-67
2023/06/03 02:21:12;;;;;;;5.60;2.97;;;;;;;7.62;66.80;101819.28;4879260;29;20602;-67
2023/06/03 02:23:41;;;;;;;3.25;1.80;;;;;;;7.89;67.22;101820.94;4880664;29;20212;-69
2023/06/03 02:26:13;;;;;;;3.25;2.15;;;;;;;7.64;66.04;101822.69;4883190;29;20222;-69
2023/06/03 02:28:44;;;;;;;4.47;2.38;;;;;;;7.70;67.40;101827.41;4879323;29;20301;-68
2023/06/03 02:31:13;;;;;;;5.03;2.05;;;;;;;7.64;65.89;101825.38;4880943;29;20266;-68
2023/06/03 02:33:44;;;;;;;3.28;2.00;;;;;;;7.58;65.86;101829.56;4877888;29;20199;-67
2023/06/03 02:36:15;;;;;;;3.88;1.65;;;;;;;7.40;66.17;101823.41;4878420;29;20220;-68
2023/06/03 02:38:45;;;;;;;1.85;1.63;;;;;;;7.45;66.11;101825.59;4877035;29;20837;-66
2023/06/03 02:41:14;;;;;;;2.80;1.70;;;;;;;7.39;66.14;101821.69;4877847;29;20204;-69
2023/06/03 02:43:44;;;;;;;2.53;1.40;;;;;;;7.28;66.75;101824.66;4886816;29;20207;-69
2023/06/03 02:46:13;;;;;;;6.07;2.08;;;;;;;7.31;67.42;101833.25;4869460;29;20703;-70
2023/06/03 02:48:42;;;;;;;2.10;1.90;;;;;;;8.09;65.54;101830.44;4874324;29;20207;-69
2023/06/03 02:51:11;;;;;;;3.40;1.10;;;;;;;7.67;65.29;101830.44;4881657;29;20544;-69
2023/06/03 02:53:40;;;;;;;3.20;1.65;;;;;;;7.51;65.78;101824.94;4884263;29;20316;-68
2023/06/03 02:56:09;;;;;;;3.80;1.63;;;;;;;7.70;65.28;101827.41;4882679;29;20231;-69
2023/06/03 02:58:40;;;;;;;2.55;1.30;;;;;;;7.59;65.12;101827.72;4880794;29;20682;-69
2023/06/03 03:01:11;;;;;;;2.08;1.85;;;;;;;7.52;65.35;101832.03;4865530;29;20210;-68
2023/06/03 03:03:41;;;;;;;1.98;1.42;;;;;;;7.65;65.45;101832.47;4882259;29;20229;-69
2023/06/03 03:06:11;;;;;;;2.13;1.92;;;;;;;7.58;65.71;101836.78;4883457;29;20210;-70
2023/06/03 03:08:41;;;;;;;4.30;3.03;;;;;;;7.61;65.19;101833.75;4878826;29;20230;-68
2023/06/03 03:11:11;;;;;;;2.15;1.63;;;;;;;7.62;65.52;101824.69;4873332;29;20190;-68
2023/06/03 03:13:40;;;;;;;1.70;1.50;;;;;;;7.62;65.64;101833.63;4876839;29;20604;-68
2023/06/03 03:16:13;;;;;;;1.80;1.10;;;;;;;7.75;64.90;101833.16;4883464;29;20218;-68
2023/06/03 03:18:44;;;;;;;3.45;2.10;;;;;;;7.75;64.94;101831.31;4880692;29;20639;-68
2023/06/03 03:21:14;;;;;;;3.53;1.98;;;;;;;7.70;64.44;101832.78;4878408;29;20211;-69
2023/06/03 03:23:43;;;;;;;3.42;1.55;;;;;;;7.95;63.74;101833.75;4877886;29;20761;-70
2023/06/03 03:26:13;;;;;;;3.92;1.70;;;;;;;7.97;63.86;101837.16;4884235;29;20221;-69
2023/06/03 03:28:45;;;;;;;2.10;1.42;;;;;;;7.89;63.78;101835.25;4879737;29;20243;-68
2023/06/03 03:31:18;;;;;;;3.83;1.75;;;;;;;7.89;63.65;101835.25;4875605;29;20293;-69
2023/06/03 03:33:49;;;;;;;1.63;1.27;;;;;;;8.44;63.03;101840.19;4887167;29;20700;-72
2023/06/03 03:36:22;;;;;;;2.10;1.25;;;;;;;9.10;60.18;101843.59;4886155;29;20306;-69
2023/06/03 03:39:04;;;;;;;2.33;1.45;;;;;;;9.97;57.06;101842.72;4884812;29;20199;-69
2023/06/03 03:41:44;;;;;;;3.65;1.40;;;;;;;11.36;52.51;101840.81;4881745;29;20291;-68
2023/06/03 03:44:15;;;;;;;3.05;1.52;;;;;;;11.98;50.26;101835.06;4885038;29;20206;-67
2023/06/03 03:46:52;;;;;;;2.20;1.10;;;;;;;12.43;48.92;101842.94;4882300;29;20589;-68
2023/06/03 03:49:30;;;;;;;2.67;1.30;;;;;;;13.09;46.97;101840.88;4874792;29;20714;-67
2023/06/03 03:52:06;;;;;;;2.55;1.42;;;;;;;13.81;45.81;101836.00;4877621;29;20670;-69
2023/06/03 03:54:40;;;;;;;1.67;1.10;;;;;;;13.97;44.96;101842.16;4887075;29;20196;-68
2023/06/03 03:57:16;;;;;;;2.60;1.60;;;;;;;14.31;44.10;101845.66;4886061;29;20277;-68
2023/06/03 03:59:53;;;;;;;4.17;2.03;;;;;;;14.40;43.26;101843.63;4890102;29;20449;-68
2023/06/03 04:02:24;;;;;;;2.47;1.23;;;;;;;14.62;43.41;101844.34;4879716;29;20510;-69
2023/06/03 04:04:54;;;;;;;1.90;1.33;;;;;;;14.30;43.33;101849.44;4892456;29;20453;-69
2023/06/03 04:07:25;;;;;;;1.57;1.20;;;;;;;14.70;42.56;101853.16;4884974;29;20443;-67
2023/06/03 04:09:54;;;;;;;1.80;1.30;;;;;;;14.98;41.76;101854.88;4880075;29;20447;-69
2023/06/03 04:12:32;;;;;;;2.80;1.33;;;;;;;15.17;41.39;101860.34;4884624;29;21014;-69
2023/06/03 04:15:04;;;;;;;5.47;1.47;;;;;;;15.50;40.77;101859.47;4881083;29;20994;-69
2023/06/03 04:17:38;;;;;;;2.40;1.40;;;;;;;14.80;41.48;101852.75;4885024;29;20891;-69
2023/06/03 04:20:24;;;;;;;4.40;1.63;;;;;;;14.59;42.13;101858.34;4880759;29;20818;-69
2023/06/03 04:22:53;;;;;;;2.70;1.43;;;;;;;14.65;41.57;101850.19;4875115;29;20456;-69
2023/06/03 04:25:23;;;;;;;3.00;2.17;;;;;;;14.40;41.76;101856.41;4880851;29;20495;-68
2023/06/03 04:27:56;;;;;;;3.60;1.40;;;;;;;15.39;40.66;101862.88;4883174;29;20657;-69
2023/06/03 04:30:25;;;;;;;6.37;1.67;;;;;;;15.90;39.41;101865.75;4886812;29;20435;-70
2023/06/03 04:32:56;;;;;;;2.40;1.53;;;;;;;16.40;38.42;101873.16;4879189;29;20410;-68
2023/06/03 04:35:29;;;;;;;3.10;1.17;;;;;;;16.64;38.22;101871.59;4879708;29;20573;-68
2023/06/03 04:37:59;;;;;;;3.40;1.30;;;;;;;15.27;39.78;101870.00;4882099;29;20455;-68
2023/06/03 04:40:30;;;;;;;2.80;1.17;;;;;;;13.59;43.23;101868.91;4878985;29;20463;-67
2023/06/03 04:43:03;;;;;;;2.80;1.30;;;;;;;13.35;44.07;101870.19;4881467;29;20456;-68
2023/06/03 04:45:34;;;;;;;2.20;1.43;;;;;;;13.82;43.89;101869.50;4879025;29;20701;-68
2023/06/03 04:48:07;;;;;;;2.93;1.63;;;;;;;12.71;45.45;101872.91;4879063;29;20487;-70
2023/06/03 04:50:37;;;;;;;2.93;1.50;;;;;;;11.55;48.30;101861.97;4883026;29;20449;-68
2023/06/03 04:53:09;;;;;;;1.20;1.00;;;;;;;10.86;50.83;101860.34;4884894;29;20454;-69
2023/06/03 04:55:39;;;;;;;2.67;1.47;;;;;;;11.63;49.33;101859.16;4878992;29;20252;-67
2023/06/03 04:58:08;;;;;;;4.33;1.50;;;;;;;12.46;47.75;101861.56;4887204;29;20796;-68
2023/06/03 05:00:40;;;;;;;1.83;1.20;;;;;;;13.51;46.03;101860.91;4883301;29;20823;-68
2023/06/03 05:03:16;;;;;;;3.20;1.60;;;;;;;14.52;43.22;101865.69;4878735;29;20519;-67
2023/06/03 05:05:46;;;;;;;1.90;1.17;;;;;;;14.96;42.04;101863.25;4881394;29;20471;-69
2023/06/03 05:08:19;;;;;;;2.60;1.60;;;;;;;14.90;42.90;101868.69;4879201;29;20481;-69
2023/06/03 05:10:51;;;;;;;1.80;1.10;;;;;;;15.16;42.20;101869.56;4883882;29;20482;-69
2023/06/03 05:13:21;;;;;;;1.93;1.50;;;;;;;16.82;39.12;101865.38;4879192;29;20455;-70
2023/06/03 05:15:51;;;;;;;2.90;1.53;;;;;;;17.22;38.45;101869.53;4877867;29;20450;-68
2023/06/03 05:18:21;;;;;;;1.97;1.30;;;;;;;17.26;37.55;101867.16;4882846;29;20443;-68
2023/06/03 05:20:50;;;;;;;4.03;1.20;;;;;;;17.50;37.55;101863.59;4879941;29;20511;-68
2023/06/03 05:23:19;;;;;;;3.00;1.27;;;;;;;17.64;37.15;101870.66;4880514;29;20920;-69
2023/06/03 05:25:50;;;;;;;3.53;1.30;;;;;;;16.92;38.01;101865.75;4877766;29;20464;-69
2023/06/03 05:28:20;;;;;;;1.60;1.10;;;;;;;16.48;38.57;101866.59;4878259;29;20442;-68
2023/06/03 05:30:49;;;;;;;1.60;1.37;;;;;;;15.75;40.01;101871.44;4878901;29;20517;-69
2023/06/03 05:33:27;;;;;;;3.93;2.20;;;;;;;14.89;41.66;101856.97;4875128;29;20438;-69
2023/06/03 05:36:01;;;;;;;4.07;2.20;;;;;;;13.07;44.95;101867.41;4880094;29;20544;-69
2023/06/03 05:38:31;;;;;;;3.10;1.50;;;;;;;12.14;47.40;101862.00;4880915;29;20450;-68
2023/06/03 05:41:04;;;;;;;3.60;1.63;;;;;;;11.87;48.34;101858.06;4886095;29;20456;-67
2023/06/03 05:43:34;;;;;;;4.43;1.63;;;;;;;12.06;48.76;101862.06;4886421;29;20450;-68
2023/06/03 05:46:03;;;;;;;3.80;1.90;;;;;;;12.16;48.28;101854.47;4877730;29;20920;-69
2023/06/03 05:48:34;;;;;;;4.73;2.20;;;;;;;12.06;48.25;101862.91;4877929;29;20457;-69
2023/06/03 05:51:06;;;;;;;3.87;1.63;;;;;;;12.10;48.82;101857.97;4882655;29;20830;-68
2023/06/03 05:53:43;;;;;;;5.00;1.80;;;;;;;12.44;48.43;101852.75;4879896;29;20447;-70
2023/06/03 05:56:14;;;;;;;5.47;2.00;;;;;;;12.80;48.18;101857.31;4883940;29;20482;-70
2023/06/03 05:58:44;;;;;;;5.30;1.90;;;;;;;12.76;47.18;101861.47;4882514;29;20453;-69
2023/06/03 06:01:30;;;;;;;1.80;1.37;;;;;;;12.36;47.54;101852.88;4878288;29;20873;-68
2023/06/03 06:04:02;;;;;;;5.10;2.27;;;;;;;12.53;47.18;101859.75;4883119;29;20457;-70
2023/06/03 06:06:31;;;;;;;4.40;2.23;;;;;;;12.63;47.51;101857.56;4878211;29;20507;-69
2023/06/03 06:09:00;;;;;;;2.20;1.70;;;;;;;13.00;48.07;101863.78;4880872;29;20470;-69
2023/06/03 06:11:30;;;;;;;3.60;1.70;;;;;;;13.25;45.76;101862.38;4878268;29;20459;-69
2023/06/03 06:13:59;;;;;;;3.00;1.80;;;;;;;13.07;46.20;101856.53;4878371;29;20760;-68
2023/06/03 06:16:28;;;;;;;3.20;1.87;;;;;;;13.34;45.75;101861.19;4870638;29;20497;-69
2023/06/03 06:19:00;;;;;;;2.87;1.73;;;;;;;13.51;45.63;101860.91;4881898;29;20464;-66
2023/06/03 06:21:31;;;;;;;2.53;1.70;;;;;;;13.61;45.18;101864.94;4878703;29;20558;-69
2023/06/03 06:24:02;;;;;;;4.40;2.23;;;;;;;13.57;44.96;101865.53;4878922;29;20486;-69
2023/06/03 06:26:32;;;;;;;2.63;1.97;;;;;;;13.36;44.96;101859.09;4881148;29;20986;-69
2023/06/03 06:29:02;;;;;;;3.90;1.33;;;;;;;13.32;45.46;101865.97;4877611;29;20498;-69
2023/06/03 06:31:33;;;;;;;4.40;2.20;;;;;;;13.53;44.80;101865.09;4877164;29;20514;-69
2023/06/03 06:34:05;;;;;;;3.00;1.40;;;;;;;14.02;44.18;101861.44;4879275;29;21004;-69
2023/06/03 06:36:46;;;;;;;3.47;1.93;;;;;;;14.20;43.79;101851.69;4880147;29;20449;-67
2023/06/03 06:39:46;;;;;;;2.97;2.27;;;;;;;14.29;42.78;101857.78;4888954;29;20439;-68
2023/06/03 06:42:40;;;;;;;7.20;2.13;;;;;;;14.25;42.91;101860.09;4880195;29;20451;-69
2023/06/03 06:45:39;;;;;;;5.63;2.20;;;;;;;14.35;43.41;101859.72;4879236;29;20531;-68
2023/06/03 06:48:11;;;;;;;3.40;2.03;;;;;;;14.48;42.22;101858.94;4878367;29;20409;-67
2023/06/03 06:50:49;;;;;;;4.07;1.73;;;;;;;14.23;42.04;101862.16;4876851;29;20461;-68
2023/06/03 06:53:21;;;;;;;2.10;1.57;;;;;;;14.06;42.50;101866.28;4879644;29;20459;-69
2023/06/03 06:55:55;;;;;;;3.00;1.83;;;;;;;14.21;42.21;101869.72;4882608;29;20862;-68
2023/06/03 06:58:35;;;;;;;4.23;1.67;;;;;;;14.48;41.39;101858.94;4876938;29;21001;-67
2023/06/03 07:01:06;;;;;;;2.23;1.67;;;;;;;14.39;41.63;101871.06;4876467;29;20429;-69
2023/06/03 07:03:40;;;;;;;4.10;1.97;;;;;;;14.51;41.92;101864.84;4876014;29;20557;-70
2023/06/03 07:06:13;;;;;;;6.53;2.20;;;;;;;14.48;41.44;101867.09;4880988;29;20474;-68
2023/06/03 07:08:43;;;;;;;2.07;1.40;;;;;;;14.66;41.45;101862.78;4882802;29;20505;-66
2023/06/03 07:11:13;;;;;;;2.80;2.07;;;;;;;14.81;41.12;101859.03;4876470;29;20964;-69
2023/06/03 07:13:50;;;;;;;2.80;1.73;;;;;;;14.78;40.86;101863.84;4879350;29;20439;-68
2023/06/03 07:16:21;;;;;;;3.67;2.03;;;;;;;14.82;41.06;101860.69;4885072;29;20449;-69
2023/06/03 07:18:53;;;;;;;2.90;1.63;;;;;;;15.04;40.27;101863.06;4875653;29;20458;-68
2023/06/03 07:21:39;;;;;;;7.70;1.87;;;;;;;15.31;40.33;101857.59;4877706;29;20426;-69
2023/06/03 07:24:12;;;;;;;4.20;1.90;;;;;;;15.61;38.71;101853.44;4881147;29;20454;-69
2023/06/03 07:26:44;;;;;;;7.90;3.23;;;;;;;15.67;39.61;101857.19;4885219;29;20449;-69
2023/06/03 07:29:14;;;;;;;2.70;1.60;;;;;;;15.77;40.86;101857.59;4886078;29;20500;-68
2023/06/03 07:31:46;;;;;;;2.90;1.43;;;;;;;15.81;38.34;101862.41;4888216;29;20411;-68
2023/06/03 07:34:21;;;;;;;6.70;2.30;;;;;;;15.97;38.75;101856.50;4879705;29;20873;-68
2023/06/03 07:36:54;;;;;;;5.47;2.60;;;;;;;16.20;38.71;101855.16;4878740;29;20516;-66
2023/06/03 07:39:24;;;;;;;7.00;2.70;;;;;;;15.92;38.90;101860.94;4894394;29;20436;-66
2023/06/03 07:41:58;;;;;;;8.13;3.00;;;;;;;15.69;39.73;101864.09;4880068;29;20443;-69
2023/06/03 07:44:42;;;;;;;14.60;2.30;;;;;;;15.88;39.16;101865.13;4872577;29;20425;-67
2023/06/03 07:47:13;;;;;;;7.60;2.60;;;;;;;15.74;39.12;101860.75;4880692;29;20914;-67
2023/06/03 07:49:47;;;;;;;3.77;1.97;;;;;;;15.92;38.55;101864.50;4879345;29;20437;-67
2023/06/03 07:52:20;;;;;;;3.67;2.10;;;;;;;16.15;38.31;101857.69;4881136;29;20982;-68
2023/06/03 07:54:50;;;;;;;2.90;1.60;;;;;;;16.22;38.38;101858.50;4888380;29;20413;-67
2023/06/03 07:57:19;;;;;;;3.10;1.70;;;;;;;16.19;37.44;101857.06;4881002;29;20450;-67
2023/06/03 07:59:53;;;;;;;4.33;1.57;;;;;;;16.09;38.43;101856.66;4882736;29;20449;-68
2023/06/03 08:02:22;;;;;;;2.30;1.80;;;;;;;16.39;37.82;101855.09;4883429;29;20950;-67
2023/06/03 08:04:55;;;;;;;3.77;2.07;;;;;;;16.48;37.96;101858.41;4883292;29;20413;-67
2023/06/03 08:07:27;;;;;;;4.37;2.10;;;;;;;16.60;37.58;101851.22;4880499;29;20435;-67
2023/06/03 08:09:56;;;;;;;5.47;2.50;;;;;;;17.13;36.66;101846.25;4883673;29;20503;-67
2023/06/03 08:12:31;;;;;;;3.00;2.03;;;;;;;17.21;35.81;101854.16;4878942;29;20453;-67
2023/06/03 08:15:02;;;;;;;3.37;2.00;;;;;;;16.97;35.82;101854.97;4875018;29;20452;-67
2023/06/03 08:17:41;;;;;;;2.00;1.30;;;;;;;17.23;36.22;101862.16;4876067;29;20437;-67
2023/06/03 08:20:10;;;;;;;4.60;1.70;;;;;;;17.41;35.00;101854.00;4887883;29;20416;-66
2023/06/03 08:22:45;;;;;;;2.60;1.30;;;;;;;17.16;35.56;101855.88;4881442;29;20405;-67
2023/06/03 08:25:15;;;;;;;3.70;1.90;;;;;;;17.11;35.93;101853.81;4881691;29;20437;-67
2023/06/03 08:27:47;;;;;;;3.03;1.80;;;;;;;17.29;36.03;101861.25;4875039;29;20434;-68
2023/06/03 08:30:17;;;;;;;4.10;1.67;;;;;;;17.48;35.14;101854.75;4883114;29;20952;-68
2023/06/03 08:32:48;;;;;;;3.23;1.43;;;;;;;17.46;34.86;101850.59;4880407;29;20458;-65
2023/06/03 08:35:20;;;;;;;3.13;1.50;;;;;;;17.68;35.67;101855.44;4884009;29;20461;-67
2023/06/03 08:37:50;;;;;;;5.30;2.10;;;;;;;17.69;34.39;101851.66;4881504;29;20470;-69
2023/06/03 08:40:21;;;;;;;5.13;1.70;;;;;;;17.65;34.69;101857.81;4877805;29;20457;-67
2023/06/03 08:42:57;;;;;;;2.70;1.50;;;;;;;17.48;34.93;101852.03;4879795;29;20450;-67
2023/06/03 08:45:31;;;;;;;2.23;1.50;;;;;;;17.46;34.98;101856.91;4875756;29;20618;-67
2023/06/03 08:48:06;;;;;;;1.90;1.50;;;;;;;17.33;35.13;101852.38;4883300;29;20413;-68
2023/06/03 08:50:37;;;;;;;2.03;1.50;;;;;;;17.58;35.16;101860.56;4880249;29;20446;-67
2023/06/03 08:53:11;;;;;;;3.43;1.50;;;;;;;17.95;33.65;101863.41;4881288;29;20499;-67
2023/06/03 08:55:41;;;;;;;2.97;1.50;;;;;;;17.58;34.33;101855.09;4890966;29;20461;-68
2023/06/03 08:58:14;;;;;;;4.70;0.90;;;;;;;17.57;33.81;101858.88;4877457;29;20468;-67
2023/06/03 09:00:47;;;;;;;3.53;1.67;;;;;;;17.50;33.92;101860.84;4884132;29;20423;-68
2023/06/03 09:03:18;;;;;;;1.80;1.17;;;;;;;17.61;34.05;101859.31;4879389;29;20468;-68
2023/06/03 09:05:48;;;;;;;3.03;1.50;;;;;;;17.48;34.32;101854.75;4887333;29;21179;-67
2023/06/03 09:08:20;;;;;;;2.63;1.50;;;;;;;17.42;34.69;101850.22;4879168;29;20440;-68
2023/06/03 09:10:51;;;;;;;6.07;1.70;;;;;;;17.57;34.46;101847.94;4879460;29;20436;-66
2023/06/03 09:13:22;;;;;;;2.07;1.43;;;;;;;17.95;34.25;101842.31;4882919;29;20548;-68
2023/06/03 09:15:53;;;;;;;2.77;1.80;;;;;;;18.04;33.88;101843.69;4878940;29;20851;-68
2023/06/03 09:18:23;;;;;;;2.27;1.10;;;;;;;17.99;34.22;101839.97;4881554;29;20445;-65
2023/06/03 09:20:52;;;;;;;5.47;1.70;;;;;;;18.11;33.58;101841.69;4877798;29;20820;-66
2023/06/03 09:23:24;;;;;;;4.33;1.07;;;;;;;18.48;33.90;101845.25;4880958;29;20850;-66
2023/06/03 09:25:53;;;;;;;2.20;1.37;;;;;;;18.41;33.80;101833.53;4880325;29;20478;-66
2023/06/03 09:28:23;;;;;;;10.40;1.70;;;;;;;18.65;32.74;101835.31;4882057;29;20414;-65
2023/06/03 09:30:53;;;;;;;3.30;1.37;;;;;;;18.42;32.30;101835.19;4880425;29;20448;-67
2023/06/03 09:33:23;;;;;;;3.77;1.93;;;;;;;18.61;32.48;101834.13;4882064;29;20430;-66
2023/06/03 09:36:11;;;;;;;5.70;3.03;;;;;;;19.13;31.97;101834.38;4880421;29;20436;-68
2023/06/03 09:38:49;;;;;;;3.77;2.23;;;;;;;18.80;31.95;101823.09;4882564;29;20442;-67
2023/06/03 09:41:20;;;;;;;4.73;1.70;;;;;;;18.71;32.71;101821.75;4879115;29;20518;-67
2023/06/03 09:44:01;;;;;;;5.23;1.50;;;;;;;18.84;32.09;101833.34;4877982;29;20443;-68
2023/06/03 09:46:31;;;;;;;3.57;1.63;;;;;;;18.61;32.00;101823.16;4879258;29;20458;-67
2023/06/03 09:49:10;;;;;;;2.77;1.70;;;;;;;18.41;31.74;101822.56;4886543;29;20525;-67
2023/06/03 09:51:43;;;;;;;3.37;2.17;;;;;;;18.24;32.17;101821.53;4877363;29;20442;-67
2023/06/03 09:54:15;;;;;;;4.20;1.77;;;;;;;18.51;32.12;101825.59;4878437;29;20406;-67
2023/06/03 09:56:45;;;;;;;3.80;1.50;;;;;;;18.93;31.85;101815.50;4877606;29;20432;-66
2023/06/03 09:59:17;;;;;;;1.87;1.40;;;;;;;19.26;31.26;101831.44;4884714;29;20870;-69
2023/06/03 10:01:48;;;;;;;2.87;1.70;;;;;;;19.04;30.63;101833.03;4881589;29;20442;-66
2023/06/03 10:04:20;;;;;;;2.70;1.50;;;;;;;18.80;31.29;101825.84;4876464;29;20431;-68
2023/06/03 10:07:07;;;;;;;2.13;1.60;;;;;;;19.26;30.70;101825.94;4885881;29;21158;-69
2023/06/03 10:09:38;;;;;;;5.30;1.60;;;;;;;19.22;30.47;101830.22;4882640;29;20424;-66
2023/06/03 10:12:10;;;;;;;5.73;2.23;;;;;;;19.29;31.14;101825.47;4877590;29;20466;-68
2023/06/03 10:14:46;;;;;;;2.23;1.50;;;;;;;19.74;30.58;101825.72;4878168;29;20418;-68
2023/06/03 10:17:17;;;;;;;2.63;1.60;;;;;;;19.88;30.66;101829.06;4878323;29;20439;-67
2023/06/03 10:19:47;;;;;;;6.10;1.73;;;;;;;19.47;30.62;101817.13;4878004;29;20445;-68
2023/06/03 10:22:18;;;;;;;4.40;1.57;;;;;;;19.16;30.66;101831.19;4876490;29;20511;-65
2023/06/03 10:24:50;;;;;;;4.43;1.83;;;;;;;19.06;31.05;101825.44;4881048;29;20497;-68
2023/06/03 10:27:20;;;;;;;2.13;1.77;;;;;;;19.58;30.01;101820.13;4884157;29;20460;-67
2023/06/03 10:29:52;;;;;;;3.90;1.43;;;;;;;19.40;30.47;101821.88;4889778;29;20422;-68
2023/06/03 10:32:23;;;;;;;2.03;1.10;;;;;;;19.05;30.66;101812.78;4878170;29;20417;-67
2023/06/03 10:34:54;;;;;;;3.20;1.87;;;;;;;19.30;30.47;101810.66;4875904;29;20445;-68
2023/06/03 10:37:25;;;;;;;2.40;1.50;;;;;;;19.47;28.91;101799.81;4879870;29;20513;-66
2023/06/03 10:39:56;;;;;;;6.03;1.53;;;;;;;19.48;29.74;101801.50;4889005;29;20824;-67
2023/06/03 10:42:26;;;;;;;5.37;1.57;;;;;;;19.64;29.96;101805.44;4880940;29;20417;-67
2023/06/03 10:44:56;;;;;;;3.73;3.40;;;;;;;19.58;29.13;101807.22;4886552;29;20420;-66
2023/06/03 10:47:28;;;;;;;2.93;1.40;;;;;;;19.40;29.35;101808.16;4881302;29;20419;-67
2023/06/03 10:50:05;;;;;;;2.83;1.57;;;;;;;19.11;30.65;101800.88;4884626;29;20415;-68
2023/06/03 10:52:51;;;;;;;2.37;1.87;;;;;;;19.19;30.75;101795.03;4878331;29;20409;-68
2023/06/03 10:55:31;;;;;;;2.27;1.00;;;;;;;19.77;29.53;101797.78;4881668;29;20433;-69
2023/06/03 10:58:05;;;;;;;2.60;1.60;;;;;;;19.51;30.04;101790.88;4876095;29;20833;-68
2023/06/03 11:00:53;;;;;;;2.57;1.40;;;;;;;19.45;30.78;101780.88;4883397;29;21005;-68
2023/06/03 11:03:23;;;;;;;2.73;1.60;;;;;;;19.00;30.95;101787.97;4879116;29;20455;-67
2023/06/03 11:05:53;;;;;;;1.97;1.27;;;;;;;18.84;31.50;101783.16;4882929;29;20459;-68
2023/06/03 11:09:00;;;;;;;7.17;1.30;;;;;;;19.05;31.32;101782.59;4879942;29;20416;-66
2023/06/03 11:12:02;;;;;;;3.23;1.17;;;;;;;18.87;30.92;101783.53;4876470;29;20417;-66
2023/06/03 11:14:53;;;;;;;7.30;5.30;;;;;;;19.15;31.04;101782.84;4886301;29;20457;-68
2023/06/03 11:17:24;;;;;;;6.33;2.07;;;;;;;19.43;30.67;101779.38;4880722;29;20922;-67
2023/06/03 11:19:56;;;;;;;3.70;1.67;;;;;;;19.35;30.11;101783.34;4872543;29;20494;-68
2023/06/03 11:22:41;;;;;;;2.60;1.50;;;;;;;19.29;30.45;101784.28;4878774;29;21028;-69
2023/06/03 11:25:27;;;;;;;1.70;1.10;;;;;;;19.31;29.94;101784.06;4870500;29;20479;-67
2023/06/03 11:28:29;;;;;;;4.00;1.27;;;;;;;19.22;30.75;101774.53;4877793;29;20496;-68
2023/06/03 11:31:00;;;;;;;2.83;1.70;;;;;;;19.61;29.97;101783.94;4877243;29;20413;-68
2023/06/03 11:33:29;;;;;;;8.13;2.10;;;;;;;19.66;30.08;101778.56;4873752;29;20442;-67
2023/06/03 11:35:58;;;;;;;2.87;1.57;;;;;;;19.81;30.01;101776.16;4876280;29;20552;-69
2023/06/03 11:38:58;;;;;;;2.80;1.63;;;;;;;19.94;29.22;101779.44;4881528;29;20480;-67
2023/06/03 11:42:06;;;;;;;3.37;1.80;;;;;;;19.88;29.55;101779.59;4875890;29;20558;-68
2023/06/03 11:44:35;;;;;;;8.70;2.20;;;;;;;20.02;30.28;101774.66;4876860;29;20507;-68
2023/06/03 11:47:07;;;;;;;5.67;2.40;;;;;;;19.68;29.45;101769.00;4889684;29;20406;-68
2023/06/03 11:49:38;;;;;;;2.90;1.70;;;;;;;19.71;29.68;101767.69;4881405;29;20421;-67
2023/06/03 11:52:08;;;;;;;3.53;1.50;;;;;;;19.76;29.76;101765.88;4878289;29;20431;-67